Time;durP1;ratioP1;P1;durP2;ratioP2;P2;SDS_P1;SDS_P2;PMS_P1;PMS_P2;Temp;Humidity;BMP_temperature;BMP_pressure;BME280_temperature;BME280_humidity;BME280_pressure;Samples;Min_cycle;Max_cycle;Signal;HPM_P1;HPM_P2
2024/01/12 00:01:58;;;;;;;;;;;;;;;-0.18;79.13;102571.91;4195518;28;19969;-70
2024/01/12 00:04:00;;;;;;;;;;;;;;;-0.17;78.95;102562.16;4194691;28;20023;-70
2024/01/12 00:06:02;;;;;;;;;;;;;;;-0.17;79.10;102567.47;4195857;28;19996;-70
2024/01/12 00:08:04;;;;;;;;;;;;;;;-0.16;79.05;102567.41;4195824;28;20367;-70
2024/01/12 00:10:08;;;;;;;;;;;;;;;-0.16;79.12;102561.22;4193663;28;20035;-70
2024/01/12 00:12:10;;;;;;;;;;;;;;;-0.15;79.07;102570.94;4193318;28;20019;-70
2024/01/12 00:14:14;;;;;;;;;;;;;;;-0.18;78.82;102571.91;4195447;28;20027;-70
2024/01/12 00:16:16;;;;;;;;;;;;;;;-0.18;78.80;102574.56;4194284;28;20020;-70
2024/01/12 00:18:18;;;;;;;;;;;;;;;-0.18;78.36;102574.56;4195560;28;20664;-70
2024/01/12 00:20:19;;;;;;;;;;;;;;;-0.16;78.67;102577.16;4196024;28;19932;-70
2024/01/12 00:22:21;;;;;;;;;;;;;;;-0.17;78.31;102573.66;4196343;28;19932;-70
2024/01/12 00:24:23;;;;;;;;;;;;;;;-0.16;78.43;102580.69;4194834;28;20015;-69
2024/01/12 00:26:26;;;;;;;;;;;;;;;-0.16;78.38;102579.81;4209897;28;20485;-70
2024/01/12 00:28:30;;;;;;;;;;;;;;;-0.16;78.20;102586.00;4195084;28;20019;-70
2024/01/12 00:30:34;;;;;;;;;;;;;;;-0.16;78.22;102583.34;4195322;28;20102;-69
2024/01/12 00:32:37;;;;;;;;;;;;;;;-0.15;78.33;102570.94;4193417;28;20027;-70
2024/01/12 00:34:39;;;;;;;;;;;;;;;-0.14;78.26;102580.63;4195079;28;20031;-69
2024/01/12 00:36:40;;;;;;;;;;;;;;;-0.15;78.24;102582.41;4196084;28;20007;-70
2024/01/12 00:38:42;;;;;;;;;;;;;;;-0.14;78.23;102583.28;4195009;28;20050;-70
2024/01/12 00:40:44;;;;;;;;;;;;;;;-0.15;78.04;102578.91;4193470;28;20321;-70
2024/01/12 00:42:46;;;;;;;;;;;;;;;-0.12;78.09;102584.09;4193271;28;20445;-70
2024/01/12 00:44:48;;;;;;;;;;;;;;;-0.15;78.04;102585.06;4194591;28;20026;-70
2024/01/12 00:46:52;;;;;;;;;;;;;;;-0.13;78.06;102590.31;4194375;28;20007;-70
2024/01/12 00:48:53;;;;;;;;;;;;;;;-0.12;78.09;102594.72;4186061;28;20504;-70
2024/01/12 00:50:56;;;;;;;;;;;;;;;-0.12;77.97;102592.06;4202283;28;20087;-69
2024/01/12 00:52:58;;;;;;;;;;;;;;;-0.12;77.90;102597.38;4196551;28;19952;-70
2024/01/12 00:55:00;;;;;;;;;;;;;;;-0.11;78.01;102599.97;4196769;28;20030;-70
2024/01/12 00:57:02;;;;;;;;;;;;;;;-0.11;77.83;102596.44;4197951;28;20035;-70
2024/01/12 00:59:04;;;;;;;;;;;;;;;-0.11;77.94;102593.78;4196771;28;20019;-70
2024/01/12 01:01:08;;;;;;;;;;;;;;;-0.11;77.90;102594.66;4212403;28;20788;-70
2024/01/12 01:03:12;;;;;;;;;;;;;;;-0.12;78.07;102587.59;4196892;28;20351;-70
2024/01/12 01:05:13;;;;;;;;;;;;;;;-0.11;77.74;102583.16;4205238;28;20016;-70
2024/01/12 01:07:18;;;;;;;;;;;;;;;-0.12;77.88;102592.91;4195010;28;20015;-70
2024/01/12 01:09:20;;;;;;;;;;;;;;;-0.12;77.84;102587.59;4197078;28;20092;-70
2024/01/12 01:11:22;;;;;;;;;;;;;;;-0.11;78.07;102596.44;4196238;28;20019;-70
2024/01/12 01:13:24;;;;;;;;;;;;;;;-0.11;78.07;102596.44;4197247;28;20049;-69
2024/01/12 01:15:26;;;;;;;;;;;;;;;-0.12;78.41;102594.72;4197058;28;20020;-70
2024/01/12 01:17:28;;;;;;;;;;;;;;;-0.11;78.32;102594.66;4198052;28;20007;-70
2024/01/12 01:19:31;;;;;;;;;;;;;;;-0.11;78.23;102597.31;4197333;28;20028;-69
2024/01/12 01:21:33;;;;;;;;;;;;;;;-0.11;78.54;102599.09;4198076;28;19933;-70
2024/01/12 01:23:35;;;;;;;;;;;;;;;-0.11;78.69;102596.44;4197185;28;20022;-70
2024/01/12 01:25:38;;;;;;;;;;;;;;;-0.11;78.29;102594.66;4196960;28;20442;-69
2024/01/12 01:27:40;;;;;;;;;;;;;;;-0.12;78.82;102587.59;4198291;28;20027;-70
2024/01/12 01:29:41;;;;;;;;;;;;;;;-0.10;78.84;102590.19;4196862;28;20023;-70
2024/01/12 01:31:43;;;;;;;;;;;;;;;-0.10;78.33;102587.53;4197185;28;19961;-70
2024/01/12 01:33:45;;;;;;;;;;;;;;;-0.11;78.60;102584.03;4196341;28;20023;-69
2024/01/12 01:35:49;;;;;;;;;;;;;;;-0.11;78.60;102584.03;4211641;28;20329;-70
2024/01/12 01:37:51;;;;;;;;;;;;;;;-0.11;78.65;102583.16;4196792;28;20020;-71
2024/01/12 01:39:53;;;;;;;;;;;;;;;-0.11;78.81;102581.38;4195549;28;20031;-70
2024/01/12 01:41:56;;;;;;;;;;;;;;;-0.12;79.12;102579.63;4193926;28;19928;-70
2024/01/12 01:43:58;;;;;;;;;;;;;;;-0.11;79.10;102569.88;4195350;28;20022;-70
2024/01/12 01:46:00;;;;;;;;;;;;;;;-0.11;79.64;102570.75;4196060;28;20028;-70
2024/01/12 01:48:02;;;;;;;;;;;;;;;-0.10;78.98;102568.94;4196383;28;19996;-70
2024/01/12 01:50:04;;;;;;;;;;;;;;;-0.10;78.92;102558.31;4196075;28;20015;-70
2024/01/12 01:52:09;;;;;;;;;;;;;;;-0.11;78.79;102565.44;4196125;28;20019;-70
2024/01/12 01:54:11;;;;;;;;;;;;;;;-0.11;78.93;102570.75;4194661;28;20096;-72
2024/01/12 01:56:15;;;;;;;;;;;;;;;-0.10;78.69;102575.13;4196254;28;20055;-71
2024/01/12 01:58:17;;;;;;;;;;;;;;;-0.10;79.20;102576.91;4185428;28;20099;-71
2024/01/12 02:00:22;;;;;;;;;;;;;;;-0.09;79.21;102576.00;4196267;28;20372;-72
2024/01/12 02:02:27;;;;;;;;;;;;;;;-0.09;79.66;102576.00;4193934;28;20023;-71
2024/01/12 02:04:29;;;;;;;;;;;;;;;-0.09;79.79;102581.31;4194460;28;20007;-71
2024/01/12 02:06:34;;;;;;;;;;;;;;;-0.09;79.99;102571.53;4195654;28;19929;-70
2024/01/12 02:08:37;;;;;;;;;;;;;;;-0.08;80.32;102567.09;4195614;28;20011;-70
2024/01/12 02:10:41;;;;;;;;;;;;;;;-0.07;79.89;102560.84;4195512;28;20022;-72
2024/01/12 02:12:43;;;;;;;;;;;;;;;-0.06;79.70;102555.47;4194847;28;20027;-68
2024/01/12 02:14:48;;;;;;;;;;;;;;;-0.06;79.27;102565.25;4195935;28;20015;-72
2024/01/12 02:16:49;;;;;;;;;;;;;;;-0.06;79.22;102562.59;4195704;28;20433;-70
2024/01/12 02:18:51;;;;;;;;;;;;;;;-0.07;78.83;102569.69;4196043;28;19925;-71
2024/01/12 02:20:56;;;;;;;;;;;;;;;-0.07;79.04;102567.03;4195312;28;20093;-70
2024/01/12 02:23:01;;;;;;;;;;;;;;;-0.05;78.73;102567.84;4194921;28;20376;-72
2024/01/12 02:25:03;;;;;;;;;;;;;;;-0.05;78.64;102562.53;4194128;28;20015;-72
2024/01/12 02:27:05;;;;;;;;;;;;;;;-0.05;78.54;102565.19;4195357;28;19971;-72
2024/01/12 02:29:07;;;;;;;;;;;;;;;-0.03;78.60;102570.44;4195092;28;20607;-71
2024/01/12 02:31:09;;;;;;;;;;;;;;;-0.04;78.58;102568.69;4195012;28;20019;-69
2024/01/12 02:33:11;;;;;;;;;;;;;;;-0.02;78.83;102577.47;4195778;28;20044;-72
2024/01/12 02:35:13;;;;;;;;;;;;;;;-0.01;78.60;102572.09;4195674;28;20173;-72
2024/01/12 02:37:15;;;;;;;;;;;;;;;-0.02;78.48;102569.50;4194760;28;20016;-72
2024/01/12 02:39:17;;;;;;;;;;;;;;;-0.01;78.71;102585.38;4193902;28;20348;-72
2024/01/12 02:41:20;;;;;;;;;;;;;;;-0.01;78.75;102580.06;4195194;28;20031;-71
2024/01/12 02:43:22;;;;;;;;;;;;;;;0.02;78.59;102575.53;4195425;28;19963;-72
2024/01/12 02:45:24;;;;;;;;;;;;;;;0.03;78.82;102580.78;4194431;28;20004;-71
2024/01/12 02:47:26;;;;;;;;;;;;;;;0.04;78.66;102576.34;4195677;28;20015;-72
2024/01/12 02:49:28;;;;;;;;;;;;;;;0.04;78.83;102579.00;4194970;28;20028;-72
2024/01/12 02:51:29;;;;;;;;;;;;;;;0.04;78.68;102577.22;4194919;28;20370;-71
2024/01/12 02:53:32;;;;;;;;;;;;;;;0.06;78.68;102580.66;4194617;28;19968;-72
2024/01/12 02:55:34;;;;;;;;;;;;;;;0.06;78.68;102579.81;4194823;28;20169;-71
2024/01/12 02:57:36;;;;;;;;;;;;;;;0.06;78.45;102585.97;4194761;28;20024;-71
2024/01/12 02:59:38;;;;;;;;;;;;;;;0.05;78.26;102575.41;4194857;28;20011;-71
2024/01/12 03:01:40;;;;;;;;;;;;;;;0.05;78.67;102581.59;4194199;28;20028;-71
2024/01/12 03:03:42;;;;;;;;;;;;;;;0.08;78.63;102585.91;4194613;28;20018;-70
2024/01/12 03:05:44;;;;;;;;;;;;;;;0.07;78.62;102584.19;4193226;28;20022;-72
2024/01/12 03:07:46;;;;;;;;;;;;;;;0.07;78.54;102581.53;4194847;28;20445;-70
2024/01/12 03:09:49;;;;;;;;;;;;;;;0.08;78.27;102580.59;4194610;28;20020;-70
2024/01/12 03:11:51;;;;;;;;;;;;;;;0.09;78.18;102577.88;4193812;28;20556;-71
2024/01/12 03:13:53;;;;;;;;;;;;;;;0.08;78.01;102576.16;4195359;28;20042;-72
2024/01/12 03:15:55;;;;;;;;;;;;;;;0.09;78.43;102580.53;4193517;28;20019;-70
2024/01/12 03:18:03;;;;;;;;;;;;;;;0.09;78.16;102577.88;4195551;28;20003;-70
2024/01/12 03:20:06;;;;;;;;;;;;;;;0.08;78.25;102573.50;4195680;28;19928;-70
2024/01/12 03:22:08;;;;;;;;;;;;;;;0.10;78.30;102571.66;4195279;28;20366;-70
2024/01/12 03:24:10;;;;;;;;;;;;;;;0.11;78.48;102569.84;4194412;28;19928;-70
2024/01/12 03:26:14;;;;;;;;;;;;;;;0.12;78.22;102577.75;4194769;28;20429;-70
2024/01/12 03:28:16;;;;;;;;;;;;;;;0.13;78.42;102578.63;4195599;28;20627;-71
2024/01/12 03:30:18;;;;;;;;;;;;;;;0.12;78.17;102575.09;4193472;28;20434;-70
2024/01/12 03:32:20;;;;;;;;;;;;;;;0.12;78.14;102571.59;4193736;28;20471;-70
2024/01/12 03:34:22;;;;;;;;;;;;;;;0.14;78.62;102569.72;4194863;28;20015;-70
2024/01/12 03:36:27;;;;;;;;;;;;;;;0.14;78.21;102564.41;4195101;28;20378;-70
2024/01/12 03:38:29;;;;;;;;;;;;;;;0.13;78.37;102552.06;4194870;28;20028;-70
2024/01/12 03:40:33;;;;;;;;;;;;;;;0.13;78.20;102550.25;4191620;28;20401;-69
2024/01/12 03:42:37;;;;;;;;;;;;;;;0.14;78.20;102544.03;4194272;28;20028;-70
2024/01/12 03:44:39;;;;;;;;;;;;;;;0.16;78.19;102544.81;4191100;28;19967;-71
2024/01/12 03:46:41;;;;;;;;;;;;;;;0.16;78.39;102538.66;4194199;28;20023;-71
2024/01/12 03:48:46;;;;;;;;;;;;;;;0.17;78.56;102527.97;4193845;28;20494;-70
2024/01/12 03:50:48;;;;;;;;;;;;;;;0.18;78.34;102520.84;4194041;28;20015;-70
2024/01/12 03:52:50;;;;;;;;;;;;;;;0.18;78.43;102510.22;4193891;28;20029;-70
2024/01/12 03:54:51;;;;;;;;;;;;;;;0.17;78.31;102508.47;4193827;28;20007;-70
2024/01/12 03:56:53;;;;;;;;;;;;;;;0.18;78.44;102516.38;4195349;28;20007;-70
2024/01/12 03:58:56;;;;;;;;;;;;;;;0.17;78.29;102527.97;4202273;28;20019;-70
2024/01/12 04:00:58;;;;;;;;;;;;;;;0.18;78.23;102520.84;4194100;28;20039;-70
2024/01/12 04:02:59;;;;;;;;;;;;;;;0.17;78.61;102517.31;4195374;28;19971;-70
2024/01/12 04:05:01;;;;;;;;;;;;;;;0.18;78.77;102512.88;4194519;28;19925;-70
2024/01/12 04:07:03;;;;;;;;;;;;;;;0.19;78.92;102517.25;4193683;28;20015;-71
2024/01/12 04:09:05;;;;;;;;;;;;;;;0.18;79.13;102521.69;4194475;28;20017;-70
2024/01/12 04:11:07;;;;;;;;;;;;;;;0.20;79.26;102531.41;4193273;28;20015;-70
2024/01/12 04:13:08;;;;;;;;;;;;;;;0.20;79.46;102518.97;4194103;28;20107;-70
2024/01/12 04:15:11;;;;;;;;;;;;;;;0.20;79.46;102507.47;4194227;28;19936;-70
2024/01/12 04:17:12;;;;;;;;;;;;;;;0.19;79.83;102503.97;4194420;28;20019;-70
2024/01/12 04:19:14;;;;;;;;;;;;;;;0.21;79.50;102503.91;4195452;28;20461;-70
2024/01/12 04:21:16;;;;;;;;;;;;;;;0.20;79.31;102507.47;4194127;28;20020;-70
2024/01/12 04:23:17;;;;;;;;;;;;;;;0.23;79.37;102510.00;4194202;28;20007;-70
2024/01/12 04:25:19;;;;;;;;;;;;;;;0.22;78.93;102511.81;4194446;28;19939;-70
2024/01/12 04:27:21;;;;;;;;;;;;;;;0.23;78.92;102515.31;4195831;28;20020;-70
2024/01/12 04:29:22;;;;;;;;;;;;;;;0.23;78.87;102515.31;4197810;28;20035;-70
2024/01/12 04:31:25;;;;;;;;;;;;;;;0.22;78.61;102514.47;4196785;28;19928;-69
2024/01/12 04:33:27;;;;;;;;;;;;;;;0.23;78.92;102508.22;4197677;28;20030;-70
2024/01/12 04:35:29;;;;;;;;;;;;;;;0.24;78.52;102511.75;4197624;28;20018;-70
2024/01/12 04:37:31;;;;;;;;;;;;;;;0.24;78.48;102517.91;4197492;28;20015;-70
2024/01/12 04:39:33;;;;;;;;;;;;;;;0.27;78.72;102519.59;4194716;28;20016;-70
2024/01/12 04:41:35;;;;;;;;;;;;;;;0.26;78.62;102516.03;4196204;28;20011;-70
2024/01/12 04:43:37;;;;;;;;;;;;;;;0.26;78.66;102518.72;4195194;28;20490;-70
2024/01/12 04:45:39;;;;;;;;;;;;;;;0.25;78.69;102516.13;4196208;28;20386;-70
2024/01/12 04:47:42;;;;;;;;;;;;;;;0.27;78.98;102519.59;4197486;28;20023;-70
2024/01/12 04:49:44;;;;;;;;;;;;;;;0.28;78.74;102514.22;4197130;28;20019;-69
2024/01/12 04:51:46;;;;;;;;;;;;;;;0.29;78.79;102507.09;4195116;28;20027;-69
2024/01/12 04:53:48;;;;;;;;;;;;;;;0.28;78.71;102503.56;4196218;28;20031;-70
2024/01/12 04:55:50;;;;;;;;;;;;;;;0.28;78.63;102502.69;4197125;28;20380;-70
2024/01/12 04:57:52;;;;;;;;;;;;;;;0.29;78.56;102507.09;4196480;28;20012;-70
2024/01/12 04:59:56;;;;;;;;;;;;;;;0.31;78.77;102508.75;4197037;28;20430;-70
2024/01/12 05:01:58;;;;;;;;;;;;;;;0.31;78.81;102511.41;4195978;28;20370;-70
2024/01/12 05:04:02;;;;;;;;;;;;;;;0.31;78.70;102515.84;4195950;28;20023;-70
2024/01/12 05:06:04;;;;;;;;;;;;;;;0.30;78.69;102517.66;4196055;28;20457;-70
2024/01/12 05:08:06;;;;;;;;;;;;;;;0.31;79.55;102523.81;4197066;28;20099;-70
2024/01/12 05:10:08;;;;;;;;;;;;;;;0.31;79.12;102516.72;4195001;28;20111;-70
2024/01/12 05:12:10;;;;;;;;;;;;;;;0.32;79.09;102513.13;4194725;28;20422;-70
2024/01/12 05:14:12;;;;;;;;;;;;;;;0.32;79.11;102521.09;4196650;28;20024;-70
2024/01/12 05:16:14;;;;;;;;;;;;;;;0.33;79.30;102516.66;4203097;28;20485;-70
2024/01/12 05:18:16;;;;;;;;;;;;;;;0.34;79.21;102523.69;4188039;28;20019;-70
2024/01/12 05:20:21;;;;;;;;;;;;;;;0.33;78.98;102529.97;4196635;28;20398;-70
2024/01/12 05:22:25;;;;;;;;;;;;;;;0.33;79.55;102516.66;4194882;28;20011;-70
2024/01/12 05:24:27;;;;;;;;;;;;;;;0.32;80.19;102518.44;4195146;28;20003;-70
2024/01/12 05:26:29;;;;;;;;;;;;;;;0.33;80.15;102517.53;4194504;28;19967;-70
2024/01/12 05:28:30;;;;;;;;;;;;;;;0.32;80.41;102518.44;4196326;28;20023;-70
2024/01/12 05:30:32;;;;;;;;;;;;;;;0.33;80.89;102527.31;4196381;28;20035;-70
2024/01/12 05:32:34;;;;;;;;;;;;;;;0.32;81.16;102526.41;4195216;28;20027;-70
2024/01/12 05:34:36;;;;;;;;;;;;;;;0.33;81.12;102525.50;4195070;28;20027;-70
2024/01/12 05:36:40;;;;;;;;;;;;;;;0.33;81.06;102532.63;4194433;28;20550;-70
2024/01/12 05:38:42;;;;;;;;;;;;;;;0.33;81.43;102522.84;4195040;28;20023;-72
2024/01/12 05:40:44;;;;;;;;;;;;;;;0.33;82.08;102528.16;4194070;28;20023;-70
2024/01/12 05:42:44;;;;;;;;;;;;;;;0.33;82.49;102524.63;4195582;28;20362;-70
2024/01/12 05:44:47;;;;;;;;;;;;;;;0.32;82.80;102517.59;4195947;28;19928;-70
2024/01/12 05:46:48;;;;;;;;;;;;;;;0.32;83.46;102512.28;4195538;28;19928;-70
2024/01/12 05:48:49;;;;;;;;;;;;;;;0.32;83.35;102509.63;4194846;28;19931;-70
2024/01/12 05:50:51;;;;;;;;;;;;;;;0.33;83.02;102521.97;4194983;28;20007;-69
2024/01/12 05:52:57;;;;;;;;;;;;;;;0.31;82.99;102524.72;4193358;28;20011;-70
2024/01/12 05:54:58;;;;;;;;;;;;;;;0.31;83.15;102519.41;4195066;28;20015;-69
2024/01/12 05:57:00;;;;;;;;;;;;;;;0.32;83.32;102514.94;4194738;28;20337;-70
2024/01/12 05:59:02;;;;;;;;;;;;;;;0.32;83.65;102515.78;4195343;28;20020;-70
2024/01/12 06:01:04;;;;;;;;;;;;;;;0.32;84.01;102506.97;4195429;28;20019;-69
2024/01/12 06:03:06;;;;;;;;;;;;;;;0.32;84.14;102514.94;4196057;28;20027;-69
2024/01/12 06:05:08;;;;;;;;;;;;;;;0.31;84.62;102529.13;4196320;28;20016;-69
2024/01/12 06:07:10;;;;;;;;;;;;;;;0.31;84.82;102540.66;4197148;28;20329;-69
2024/01/12 06:09:15;;;;;;;;;;;;;;;0.31;84.54;102540.66;4195514;28;20364;-71
2024/01/12 06:11:17;;;;;;;;;;;;;;;0.33;83.66;102540.59;4194719;28;20024;-70
2024/01/12 06:13:19;;;;;;;;;;;;;;;0.31;82.74;102527.38;4195547;28;20051;-69
2024/01/12 06:15:21;;;;;;;;;;;;;;;0.33;82.37;102527.31;4195899;28;20011;-70
2024/01/12 06:17:23;;;;;;;;;;;;;;;0.32;82.42;102526.41;4211478;28;20456;-70
2024/01/12 06:19:25;;;;;;;;;;;;;;;0.31;82.42;102532.69;4194759;28;20024;-71
2024/01/12 06:21:28;;;;;;;;;;;;;;;0.32;82.77;102529.06;4196486;28;20022;-70
2024/01/12 06:23:31;;;;;;;;;;;;;;;0.33;82.44;102538.78;4192938;28;20007;-70
2024/01/12 06:25:36;;;;;;;;;;;;;;;0.32;82.33;102534.38;4193265;28;20022;-71
2024/01/12 06:27:41;;;;;;;;;;;;;;;0.34;82.37;102536.97;4194476;28;20027;-70
2024/01/12 06:29:42;;;;;;;;;;;;;;;0.35;82.12;102541.38;4195367;28;20007;-70
2024/01/12 06:31:44;;;;;;;;;;;;;;;0.37;81.43;102538.66;4194655;28;20524;-70
2024/01/12 06:33:46;;;;;;;;;;;;;;;0.35;81.46;102538.72;4192811;28;20477;-70
2024/01/12 06:35:48;;;;;;;;;;;;;;;0.35;81.83;102539.56;4202315;28;20354;-70
2024/01/12 06:37:50;;;;;;;;;;;;;;;0.35;82.87;102538.72;4193157;28;20027;-70
2024/01/12 06:39:51;;;;;;;;;;;;;;;0.34;83.28;102543.16;4184159;28;20047;-69
2024/01/12 06:41:55;;;;;;;;;;;;;;;0.34;84.10;102532.53;4189649;28;20457;-70
2024/01/12 06:43:58;;;;;;;;;;;;;;;0.35;84.30;102530.75;4191468;28;20059;-70
2024/01/12 06:45:59;;;;;;;;;;;;;;;0.37;84.16;102546.63;4191876;28;20364;-70
2024/01/12 06:48:01;;;;;;;;;;;;;;;0.36;83.78;102551.06;4193750;28;20023;-70
2024/01/12 06:50:04;;;;;;;;;;;;;;;0.38;83.62;102556.31;4194362;28;20011;-70
2024/01/12 06:52:06;;;;;;;;;;;;;;;0.36;83.36;102564.34;4194062;28;20013;-71
2024/01/12 06:54:08;;;;;;;;;;;;;;;0.37;83.29;102558.13;4195785;28;20019;-71
2024/01/12 06:56:19;;;;;;;;;;;;;;;0.37;83.86;102559.91;4194919;28;20051;-70
2024/01/12 06:58:22;;;;;;;;;;;;;;;0.37;84.52;102560.78;4185360;28;20226;-71
2024/01/12 07:00:24;;;;;;;;;;;;;;;0.37;85.07;102551.94;4195050;28;19991;-71
2024/01/12 07:02:26;;;;;;;;;;;;;;;0.37;85.56;102549.28;4193285;28;20020;-71
2024/01/12 07:04:28;;;;;;;;;;;;;;;0.37;85.83;102543.97;4195603;28;19959;-70
2024/01/12 07:06:30;;;;;;;;;;;;;;;0.36;86.01;102537.78;4194687;28;20008;-70
2024/01/12 07:08:32;;;;;;;;;;;;;;;0.36;85.91;102535.13;4195899;28;20023;-71
2024/01/12 07:10:34;;;;;;;;;;;;;;;0.36;85.87;102535.13;4192576;28;20027;-70
2024/01/12 07:12:36;;;;;;;;;;;;;;;0.37;86.13;102528.03;4192341;28;20044;-71
2024/01/12 07:14:39;;;;;;;;;;;;;;;0.37;86.04;102526.22;4194546;28;20011;-70
2024/01/12 07:16:41;;;;;;;;;;;;;;;0.37;85.90;102514.72;4195695;28;20408;-71
2024/01/12 07:18:43;;;;;;;;;;;;;;;0.38;85.33;102519.09;4195244;28;20495;-71
2024/01/12 07:20:45;;;;;;;;;;;;;;;0.37;85.11;102520.91;4195393;28;20438;-70
2024/01/12 07:22:47;;;;;;;;;;;;;;;0.38;85.13;102516.44;4191303;28;20027;-70
2024/01/12 07:24:48;;;;;;;;;;;;;;;0.39;85.31;102518.19;4192471;28;20015;-70
2024/01/12 07:26:50;;;;;;;;;;;;;;;0.40;85.25;102525.22;4192856;28;19929;-70
2024/01/12 07:28:52;;;;;;;;;;;;;;;0.37;85.30;102515.59;4194093;28;19962;-71
2024/01/12 07:30:56;;;;;;;;;;;;;;;0.37;85.82;102507.59;4192501;28;20023;-71
2024/01/12 07:32:58;;;;;;;;;;;;;;;0.39;85.78;102507.53;4192594;28;20019;-70
2024/01/12 07:35:00;;;;;;;;;;;;;;;0.38;85.65;102506.69;4193020;28;20027;-70
2024/01/12 07:37:02;;;;;;;;;;;;;;;0.37;85.95;102512.06;4193892;28;20019;-70
2024/01/12 07:39:07;;;;;;;;;;;;;;;0.37;86.52;102512.06;4193359;28;20354;-70
2024/01/12 07:41:09;;;;;;;;;;;;;;;0.36;86.51;102508.53;4193033;28;20012;-70
2024/01/12 07:43:11;;;;;;;;;;;;;;;0.37;86.58;102509.41;4190062;28;20043;-71
2024/01/12 07:45:13;;;;;;;;;;;;;;;0.34;86.41;102503.28;4192428;28;20019;-70
2024/01/12 07:47:16;;;;;;;;;;;;;;;0.34;86.62;102499.78;4191151;28;20019;-70
2024/01/12 07:49:18;;;;;;;;;;;;;;;0.34;86.49;102505.09;4190670;28;19924;-70
2024/01/12 07:51:20;;;;;;;;;;;;;;;0.34;86.73;102499.78;4192276;28;20453;-70
2024/01/12 07:53:22;;;;;;;;;;;;;;;0.35;86.65;102504.16;4192818;28;20711;-71
2024/01/12 07:55:23;;;;;;;;;;;;;;;0.36;86.90;102497.91;4192051;28;20703;-71
2024/01/12 07:57:25;;;;;;;;;;;;;;;0.35;86.93;102494.38;4190808;28;19924;-71
2024/01/12 07:59:27;;;;;;;;;;;;;;;0.37;86.51;102496.13;4192601;28;20612;-71
2024/01/12 08:01:29;;;;;;;;;;;;;;;0.35;86.28;102496.19;4192586;28;20019;-70
2024/01/12 08:03:31;;;;;;;;;;;;;;;0.35;85.72;102499.69;4194785;28;20022;-70
2024/01/12 08:05:34;;;;;;;;;;;;;;;0.36;85.44;102489.91;4195948;28;20019;-70
2024/01/12 08:07:35;;;;;;;;;;;;;;;0.35;85.38;102475.78;4196070;28;20018;-71
2024/01/12 08:09:37;;;;;;;;;;;;;;;0.35;85.92;102470.47;4195503;28;19925;-71
2024/01/12 08:11:39;;;;;;;;;;;;;;;0.35;85.94;102474.94;4196387;28;20470;-70
2024/01/12 08:13:40;;;;;;;;;;;;;;;0.35;85.57;102473.13;4197403;28;20031;-71
2024/01/12 08:15:42;;;;;;;;;;;;;;;0.35;85.34;102481.09;4197831;28;19985;-70
2024/01/12 08:17:44;;;;;;;;;;;;;;;0.38;85.32;102480.09;4196821;28;20047;-71
2024/01/12 08:19:48;;;;;;;;;;;;;;;0.38;85.34;102484.53;4196680;28;20022;-71
2024/01/12 08:21:50;;;;;;;;;;;;;;;0.37;85.43;102483.69;4196980;28;20008;-71
2024/01/12 08:23:51;;;;;;;;;;;;;;;0.37;86.10;102488.16;4196179;28;20031;-71
2024/01/12 08:25:54;;;;;;;;;;;;;;;0.36;86.30;102484.59;4197387;28;20473;-70
2024/01/12 08:27:58;;;;;;;;;;;;;;;0.37;86.42;102477.53;4197333;28;20007;-70
2024/01/12 08:30:01;;;;;;;;;;;;;;;0.37;86.57;102480.19;4196426;28;19925;-70
2024/01/12 08:32:03;;;;;;;;;;;;;;;0.37;86.86;102480.19;4197319;28;20374;-70
2024/01/12 08:34:05;;;;;;;;;;;;;;;0.37;86.48;102478.38;4195718;28;20011;-71
2024/01/12 08:36:08;;;;;;;;;;;;;;;0.37;86.10;102477.53;4196886;28;20019;-71
2024/01/12 08:38:10;;;;;;;;;;;;;;;0.37;86.25;102474.84;4196793;28;20039;-71
2024/01/12 08:40:12;;;;;;;;;;;;;;;0.35;86.53;102478.44;4195940;28;20023;-71
2024/01/12 08:42:14;;;;;;;;;;;;;;;0.37;86.80;102477.53;4195134;28;20015;-71
2024/01/12 08:44:16;;;;;;;;;;;;;;;0.36;86.92;102487.25;4185303;28;20034;-71
2024/01/12 08:46:18;;;;;;;;;;;;;;;0.37;86.96;102489.00;4191388;28;20138;-71
2024/01/12 08:48:20;;;;;;;;;;;;;;;0.37;87.13;102496.97;4194453;28;20023;-71
2024/01/12 08:50:23;;;;;;;;;;;;;;;0.38;87.21;102497.81;4190270;28;19968;-71
2024/01/12 08:52:26;;;;;;;;;;;;;;;0.39;86.70;102489.78;4192704;28;20015;-71
2024/01/12 08:54:28;;;;;;;;;;;;;;;0.40;86.29;102482.69;4195057;28;20016;-71
2024/01/12 08:56:30;;;;;;;;;;;;;;;0.40;85.85;102490.66;4196284;28;20023;-71
2024/01/12 08:58:32;;;;;;;;;;;;;;;0.41;85.59;102492.38;4194721;28;20023;-71
2024/01/12 09:00:34;;;;;;;;;;;;;;;0.41;86.05;102479.97;4195293;28;20023;-71
2024/01/12 09:02:36;;;;;;;;;;;;;;;0.41;85.79;102477.31;4196335;28;20060;-71
2024/01/12 09:04:38;;;;;;;;;;;;;;;0.45;85.60;102478.03;4196040;28;20011;-71
2024/01/12 09:06:40;;;;;;;;;;;;;;;0.42;85.24;102479.03;4195263;28;20068;-71
2024/01/12 09:08:43;;;;;;;;;;;;;;;0.44;85.22;102486.94;4203549;28;20019;-71
2024/01/12 09:10:45;;;;;;;;;;;;;;;0.44;85.07;102482.50;4195326;28;19935;-71
2024/01/12 09:12:47;;;;;;;;;;;;;;;0.44;85.02;102485.16;4195083;28;20011;-71
2024/01/12 09:14:49;;;;;;;;;;;;;;;0.44;84.62;102482.50;4195720;28;20019;-71
2024/01/12 09:16:50;;;;;;;;;;;;;;;0.44;84.81;102485.16;4196206;28;20437;-71
2024/01/12 09:18:52;;;;;;;;;;;;;;;0.44;84.97;102482.50;4194410;28;19932;-71
2024/01/12 09:20:53;;;;;;;;;;;;;;;0.45;85.33;102491.31;4196441;28;20453;-71
2024/01/12 09:22:55;;;;;;;;;;;;;;;0.44;85.57;102484.28;4195730;28;19933;-71
2024/01/12 09:24:58;;;;;;;;;;;;;;;0.44;85.58;102498.44;4196788;28;20027;-71
2024/01/12 09:27:00;;;;;;;;;;;;;;;0.45;85.36;102493.97;4196404;28;20024;-71
2024/01/12 09:29:02;;;;;;;;;;;;;;;0.44;85.63;102498.44;4195697;28;20042;-71
2024/01/12 09:31:04;;;;;;;;;;;;;;;0.46;85.65;102506.34;4195668;28;20028;-71
2024/01/12 09:33:06;;;;;;;;;;;;;;;0.46;85.48;102498.38;4196428;28;20031;-71
2024/01/12 09:35:08;;;;;;;;;;;;;;;0.47;85.50;102500.09;4195600;28;20015;-70
2024/01/12 09:37:10;;;;;;;;;;;;;;;0.48;85.37;102491.19;4195438;28;20019;-71
2024/01/12 09:39:14;;;;;;;;;;;;;;;0.47;85.32;102484.13;4195601;28;20015;-71
2024/01/12 09:41:17;;;;;;;;;;;;;;;0.48;84.75;102475.22;4194255;28;20019;-71
2024/01/12 09:43:19;;;;;;;;;;;;;;;0.48;84.67;102467.25;4195373;28;20020;-71
2024/01/12 09:45:21;;;;;;;;;;;;;;;0.50;85.13;102468.03;4195656;28;20023;-71
2024/01/12 09:47:23;;;;;;;;;;;;;;;0.50;84.83;102458.28;4195967;28;20015;-71
2024/01/12 09:49:26;;;;;;;;;;;;;;;0.51;84.32;102462.66;4195797;28;20043;-71
2024/01/12 09:51:28;;;;;;;;;;;;;;;0.51;84.35;102470.63;4196127;28;19947;-71
2024/01/12 09:53:31;;;;;;;;;;;;;;;0.52;84.25;102463.53;4195111;28;20028;-71
2024/01/12 09:55:33;;;;;;;;;;;;;;;0.50;84.75;102460.94;4195585;28;20361;-71
2024/01/12 09:57:37;;;;;;;;;;;;;;;0.50;84.74;102450.31;4211008;28;20007;-71
2024/01/12 09:59:41;;;;;;;;;;;;;;;0.49;84.87;102458.38;4195546;28;20035;-71
2024/01/12 10:01:43;;;;;;;;;;;;;;;0.49;85.01;102453.03;4194028;28;20012;-71
2024/01/12 10:03:46;;;;;;;;;;;;;;;0.49;85.02;102451.25;4196111;28;20036;-71
2024/01/12 10:05:47;;;;;;;;;;;;;;;0.50;84.85;102452.09;4202820;28;20022;-71
2024/01/12 10:07:50;;;;;;;;;;;;;;;0.49;84.72;102443.25;4195419;28;20446;-71
2024/01/12 10:09:51;;;;;;;;;;;;;;;0.49;85.37;102453.03;4195243;28;20023;-71
2024/01/12 10:11:54;;;;;;;;;;;;;;;0.49;85.05;102445.06;4195128;28;20470;-71
2024/01/12 10:14:01;;;;;;;;;;;;;;;0.49;85.33;102445.06;4194743;28;19951;-71
2024/01/12 10:16:03;;;;;;;;;;;;;;;0.50;85.53;102445.00;4194974;28;20026;-71
2024/01/12 10:18:05;;;;;;;;;;;;;;;0.51;85.25;102436.06;4184107;28;20031;-71
2024/01/12 10:20:09;;;;;;;;;;;;;;;0.50;85.25;102433.47;4185387;28;20023;-71
2024/01/12 10:22:13;;;;;;;;;;;;;;;0.51;85.72;102443.19;4183046;28;20021;-70
2024/01/12 10:24:16;;;;;;;;;;;;;;;0.51;85.52;102438.72;4191922;28;20026;-71
2024/01/12 10:26:17;;;;;;;;;;;;;;;0.51;85.54;102432.56;4185081;28;20012;-71
2024/01/12 10:28:19;;;;;;;;;;;;;;;0.51;85.43;102429.91;4190659;28;19939;-71
2024/01/12 10:30:23;;;;;;;;;;;;;;;0.52;85.55;102436.97;4193885;28;20019;-70
2024/01/12 10:32:25;;;;;;;;;;;;;;;0.51;85.03;102433.41;4193361;28;20588;-71
2024/01/12 10:34:33;;;;;;;;;;;;;;;0.51;85.47;102430.75;4195210;28;20098;-71